sensor_id;sensor_type;location;lat;lon;timestamp;temperature;humidity
41344;DHT22;27089;50.022;7.604;2023-04-06T00:00:33;0.30;99.90
41344;DHT22;27089;50.022;7.604;2023-04-06T00:03:00;0.20;99.90
41344;DHT22;27089;50.022;7.604;2023-04-06T00:05:29;0.20;99.90
41344;DHT22;27089;50.022;7.604;2023-04-06T00:07:57;0.20;99.90
41344;DHT22;27089;50.022;7.604;2023-04-06T00:10:24;0.20;99.90
41344;DHT22;27089;50.022;7.604;2023-04-06T00:12:52;0.20;99.90
41344;DHT22;27089;50.022;7.604;2023-04-06T00:15:19;0.20;99.90
41344;DHT22;27089;50.022;7.604;2023-04-06T00:17:46;0.20;99.90
41344;DHT22;27089;50.022;7.604;2023-04-06T00:20:13;0.10;99.90
41344;DHT22;27089;50.022;7.604;2023-04-06T00:22:42;0.10;99.90
41344;DHT22;27089;50.022;7.604;2023-04-06T00:25:10;0.10;99.90
41344;DHT22;27089;50.022;7.604;2023-04-06T00:27:37;0.10;99.90
41344;DHT22;27089;50.022;7.604;2023-04-06T00:30:05;0.00;99.90
41344;DHT22;27089;50.022;7.604;2023-04-06T00:32:33;-0.10;99.90
41344;DHT22;27089;50.022;7.604;2023-04-06T00:35:02;0.00;99.90
41344;DHT22;27089;50.022;7.604;2023-04-06T00:37:29;0.00;99.90
41344;DHT22;27089;50.022;7.604;2023-04-06T00:39:57;-0.10;99.90
41344;DHT22;27089;50.022;7.604;2023-04-06T00:42:25;-0.10;99.90
41344;DHT22;27089;50.022;7.604;2023-04-06T00:44:53;-0.10;99.90
41344;DHT22;27089;50.022;7.604;2023-04-06T00:47:20;-0.10;99.90
41344;DHT22;27089;50.022;7.604;2023-04-06T00:49:47;-0.10;99.90
41344;DHT22;27089;50.022;7.604;2023-04-06T00:52:15;-0.10;99.90
41344;DHT22;27089;50.022;7.604;2023-04-06T00:54:42;-0.10;99.90
41344;DHT22;27089;50.022;7.604;2023-04-06T00:57:11;-0.20;99.90
41344;DHT22;27089;50.022;7.604;2023-04-06T00:59:39;-0.20;99.90
41344;DHT22;27089;50.022;7.604;2023-04-06T01:02:06;-0.10;99.90
41344;DHT22;27089;50.022;7.604;2023-04-06T01:04:34;-0.20;99.90
41344;DHT22;27089;50.022;7.604;2023-04-06T01:07:01;-0.20;99.90
41344;DHT22;27089;50.022;7.604;2023-04-06T01:09:28;-0.10;99.90
41344;DHT22;27089;50.022;7.604;2023-04-06T01:11:56;-0.20;99.90
41344;DHT22;27089;50.022;7.604;2023-04-06T01:14:25;-0.20;99.90
41344;DHT22;27089;50.022;7.604;2023-04-06T01:16:52;-0.20;99.90
41344;DHT22;27089;50.022;7.604;2023-04-06T01:19:19;-0.20;99.90
41344;DHT22;27089;50.022;7.604;2023-04-06T01:21:49;-0.20;99.90
41344;DHT22;27089;50.022;7.604;2023-04-06T01:24:20;-0.20;99.90
41344;DHT22;27089;50.022;7.604;2023-04-06T01:26:47;-0.20;99.90
41344;DHT22;27089;50.022;7.604;2023-04-06T01:29:14;-0.20;99.90
41344;DHT22;27089;50.022;7.604;2023-04-06T01:31:42;-0.30;99.90
41344;DHT22;27089;50.022;7.604;2023-04-06T01:34:09;-0.30;99.90
41344;DHT22;27089;50.022;7.604;2023-04-06T01:36:36;-0.30;99.90
41344;DHT22;27089;50.022;7.604;2023-04-06T01:39:03;-0.40;99.90
41344;DHT22;27089;50.022;7.604;2023-04-06T01:41:31;-0.40;99.90
41344;DHT22;27089;50.022;7.604;2023-04-06T01:43:58;-0.30;99.90
41344;DHT22;27089;50.022;7.604;2023-04-06T01:46:25;-0.30;99.90
41344;DHT22;27089;50.022;7.604;2023-04-06T01:48:52;-0.40;99.90
41344;DHT22;27089;50.022;7.604;2023-04-06T01:51:20;-0.30;99.90
41344;DHT22;27089;50.022;7.604;2023-04-06T01:53:47;-0.40;99.90
41344;DHT22;27089;50.022;7.604;2023-04-06T01:56:15;-0.40;99.90
41344;DHT22;27089;50.022;7.604;2023-04-06T01:58:43;-0.40;99.90
41344;DHT22;27089;50.022;7.604;2023-04-06T02:01:10;-0.40;99.90
41344;DHT22;27089;50.022;7.604;2023-04-06T02:03:37;-0.40;99.90
41344;DHT22;27089;50.022;7.604;2023-04-06T02:06:05;-0.40;99.90
41344;DHT22;27089;50.022;7.604;2023-04-06T02:08:32;-0.40;99.90
41344;DHT22;27089;50.022;7.604;2023-04-06T02:10:59;-0.40;99.90
41344;DHT22;27089;50.022;7.604;2023-04-06T02:13:26;-0.40;99.90
41344;DHT22;27089;50.022;7.604;2023-04-06T02:15:54;-0.40;99.90
41344;DHT22;27089;50.022;7.604;2023-04-06T02:18:23;-0.40;99.90
41344;DHT22;27089;50.022;7.604;2023-04-06T02:20:50;-0.40;99.90
41344;DHT22;27089;50.022;7.604;2023-04-06T02:23:17;-0.50;99.90
41344;DHT22;27089;50.022;7.604;2023-04-06T02:25:44;-0.50;99.90
41344;DHT22;27089;50.022;7.604;2023-04-06T02:28:11;-0.50;99.90
41344;DHT22;27089;50.022;7.604;2023-04-06T02:30:38;-0.50;99.90
41344;DHT22;27089;50.022;7.604;2023-04-06T02:33:06;-0.50;99.90
41344;DHT22;27089;50.022;7.604;2023-04-06T02:35:33;-0.50;99.90
41344;DHT22;27089;50.022;7.604;2023-04-06T02:38:01;-0.50;99.90
41344;DHT22;27089;50.022;7.604;2023-04-06T02:40:28;-0.50;99.90
41344;DHT22;27089;50.022;7.604;2023-04-06T02:42:55;-0.40;99.90
41344;DHT22;27089;50.022;7.604;2023-04-06T02:45:22;-0.50;99.90
41344;DHT22;27089;50.022;7.604;2023-04-06T02:47:49;-0.50;99.90
41344;DHT22;27089;50.022;7.604;2023-04-06T02:50:17;-0.50;99.90
41344;DHT22;27089;50.022;7.604;2023-04-06T02:52:44;-0.50;99.90
41344;DHT22;27089;50.022;7.604;2023-04-06T02:55:11;-0.50;99.90
41344;DHT22;27089;50.022;7.604;2023-04-06T02:57:38;-0.50;99.90
41344;DHT22;27089;50.022;7.604;2023-04-06T03:00:08;-0.60;99.90
41344;DHT22;27089;50.022;7.604;2023-04-06T03:02:36;-0.60;99.90
41344;DHT22;27089;50.022;7.604;2023-04-06T03:05:03;-0.60;99.90
41344;DHT22;27089;50.022;7.604;2023-04-06T03:07:32;-0.60;99.90
41344;DHT22;27089;50.022;7.604;2023-04-06T03:09:59;-0.60;99.90
41344;DHT22;27089;50.022;7.604;2023-04-06T03:12:26;-0.60;99.90
41344;DHT22;27089;50.022;7.604;2023-04-06T03:14:53;-0.50;99.90
41344;DHT22;27089;50.022;7.604;2023-04-06T03:17:20;-0.60;99.90
41344;DHT22;27089;50.022;7.604;2023-04-06T03:19:47;-0.60;99.90
41344;DHT22;27089;50.022;7.604;2023-04-06T03:22:14;-0.70;99.90
41344;DHT22;27089;50.022;7.604;2023-04-06T03:24:43;-0.60;99.90
41344;DHT22;27089;50.022;7.604;2023-04-06T03:27:10;-0.70;99.90
41344;DHT22;27089;50.022;7.604;2023-04-06T03:29:37;-0.70;99.90
41344;DHT22;27089;50.022;7.604;2023-04-06T03:32:04;-0.70;99.90
41344;DHT22;27089;50.022;7.604;2023-04-06T03:34:31;-0.70;99.90
41344;DHT22;27089;50.022;7.604;2023-04-06T03:36:58;-0.70;99.90
41344;DHT22;27089;50.022;7.604;2023-04-06T03:39:25;-0.70;99.90
41344;DHT22;27089;50.022;7.604;2023-04-06T03:41:54;-0.70;99.90
41344;DHT22;27089;50.022;7.604;2023-04-06T03:44:21;-0.70;99.90
41344;DHT22;27089;50.022;7.604;2023-04-06T03:46:48;-0.70;99.90
41344;DHT22;27089;50.022;7.604;2023-04-06T03:49:15;-0.70;99.90
41344;DHT22;27089;50.022;7.604;2023-04-06T03:51:42;-0.70;99.90
41344;DHT22;27089;50.022;7.604;2023-04-06T03:54:09;-0.70;99.90
41344;DHT22;27089;50.022;7.604;2023-04-06T03:56:36;-0.70;99.90
41344;DHT22;27089;50.022;7.604;2023-04-06T03:59:04;-0.70;99.90
41344;DHT22;27089;50.022;7.604;2023-04-06T04:01:31;-0.80;99.90
41344;DHT22;27089;50.022;7.604;2023-04-06T04:03:58;-0.80;99.90
41344;DHT22;27089;50.022;7.604;2023-04-06T04:06:26;-0.80;99.90
41344;DHT22;27089;50.022;7.604;2023-04-06T04:08:53;-0.80;99.90
41344;DHT22;27089;50.022;7.604;2023-04-06T04:11:20;-0.80;99.90
41344;DHT22;27089;50.022;7.604;2023-04-06T04:13:47;-0.90;99.90
41344;DHT22;27089;50.022;7.604;2023-04-06T04:16:15;-0.90;99.90
41344;DHT22;27089;50.022;7.604;2023-04-06T04:18:42;-0.90;99.90
41344;DHT22;27089;50.022;7.604;2023-04-06T04:21:11;-1.00;99.90
41344;DHT22;27089;50.022;7.604;2023-04-06T04:23:38;-1.00;99.90
41344;DHT22;27089;50.022;7.604;2023-04-06T04:26:05;-1.00;99.90
41344;DHT22;27089;50.022;7.604;2023-04-06T04:28:32;-1.00;99.90
41344;DHT22;27089;50.022;7.604;2023-04-06T04:30:59;-1.00;99.90
41344;DHT22;27089;50.022;7.604;2023-04-06T04:33:27;-1.00;99.90
41344;DHT22;27089;50.022;7.604;2023-04-06T04:35:54;-1.00;99.90
41344;DHT22;27089;50.022;7.604;2023-04-06T04:38:21;-1.00;99.90
41344;DHT22;27089;50.022;7.604;2023-04-06T04:40:48;-1.00;99.90
41344;DHT22;27089;50.022;7.604;2023-04-06T04:43:18;-1.00;99.90
41344;DHT22;27089;50.022;7.604;2023-04-06T04:45:45;-1.00;99.90
41344;DHT22;27089;50.022;7.604;2023-04-06T04:48:12;-1.00;99.90
41344;DHT22;27089;50.022;7.604;2023-04-06T04:50:41;-1.00;99.90
41344;DHT22;27089;50.022;7.604;2023-04-06T04:53:08;-1.00;99.90
41344;DHT22;27089;50.022;7.604;2023-04-06T04:55:35;-0.90;99.90
41344;DHT22;27089;50.022;7.604;2023-04-06T04:58:02;-0.90;99.90
41344;DHT22;27089;50.022;7.604;2023-04-06T05:00:29;-0.80;99.90
41344;DHT22;27089;50.022;7.604;2023-04-06T05:02:57;-0.80;99.90
41344;DHT22;27089;50.022;7.604;2023-04-06T05:05:24;-0.70;99.90
41344;DHT22;27089;50.022;7.604;2023-04-06T05:07:52;-0.60;99.90
41344;DHT22;27089;50.022;7.604;2023-04-06T05:10:19;-0.60;99.90
41344;DHT22;27089;50.022;7.604;2023-04-06T05:12:46;-0.50;99.90
41344;DHT22;27089;50.022;7.604;2023-04-06T05:15:14;-0.50;99.90
41344;DHT22;27089;50.022;7.604;2023-04-06T05:17:41;-0.40;99.90
41344;DHT22;27089;50.022;7.604;2023-04-06T05:20:10;-0.40;99.90
41344;DHT22;27089;50.022;7.604;2023-04-06T05:22:37;0.10;99.90
41344;DHT22;27089;50.022;7.604;2023-04-06T05:25:06;0.80;99.90
41344;DHT22;27089;50.022;7.604;2023-04-06T05:27:33;1.60;99.90
41344;DHT22;27089;50.022;7.604;2023-04-06T05:30:01;2.30;99.90
41344;DHT22;27089;50.022;7.604;2023-04-06T05:32:28;3.00;99.90
41344;DHT22;27089;50.022;7.604;2023-04-06T05:34:55;3.50;99.90
41344;DHT22;27089;50.022;7.604;2023-04-06T05:37:22;3.40;99.90
41344;DHT22;27089;50.022;7.604;2023-04-06T05:39:49;4.00;99.90
41344;DHT22;27089;50.022;7.604;2023-04-06T05:42:18;4.80;99.90
41344;DHT22;27089;50.022;7.604;2023-04-06T05:44:45;5.50;99.90
41344;DHT22;27089;50.022;7.604;2023-04-06T05:47:12;6.10;99.90
41344;DHT22;27089;50.022;7.604;2023-04-06T05:49:41;6.80;99.90
41344;DHT22;27089;50.022;7.604;2023-04-06T05:52:08;7.50;99.90
41344;DHT22;27089;50.022;7.604;2023-04-06T05:54:36;7.90;99.90
41344;DHT22;27089;50.022;7.604;2023-04-06T05:57:03;8.50;99.90
41344;DHT22;27089;50.022;7.604;2023-04-06T05:59:31;8.90;99.90
41344;DHT22;27089;50.022;7.604;2023-04-06T06:01:59;9.40;99.90
41344;DHT22;27089;50.022;7.604;2023-04-06T06:04:27;9.70;99.90
41344;DHT22;27089;50.022;7.604;2023-04-06T06:06:54;10.30;99.90
41344;DHT22;27089;50.022;7.604;2023-04-06T06:09:21;10.70;99.90
41344;DHT22;27089;50.022;7.604;2023-04-06T06:11:48;11.10;99.90
41344;DHT22;27089;50.022;7.604;2023-04-06T06:14:16;11.50;99.90
41344;DHT22;27089;50.022;7.604;2023-04-06T06:16:46;12.20;99.40
41344;DHT22;27089;50.022;7.604;2023-04-06T06:19:13;12.80;98.10
41344;DHT22;27089;50.022;7.604;2023-04-06T06:21:40;13.30;95.70
41344;DHT22;27089;50.022;7.604;2023-04-06T06:24:07;13.80;94.40
41344;DHT22;27089;50.022;7.604;2023-04-06T06:26:35;13.90;92.70
41344;DHT22;27089;50.022;7.604;2023-04-06T06:29:03;14.60;91.70
41344;DHT22;27089;50.022;7.604;2023-04-06T06:31:32;15.30;89.20
41344;DHT22;27089;50.022;7.604;2023-04-06T06:34:01;15.80;85.20
41344;DHT22;27089;50.022;7.604;2023-04-06T06:36:29;15.80;82.20
41344;DHT22;27089;50.022;7.604;2023-04-06T06:38:57;15.60;81.60
41344;DHT22;27089;50.022;7.604;2023-04-06T06:41:26;15.50;81.20
41344;DHT22;27089;50.022;7.604;2023-04-06T06:43:53;15.90;81.70
41344;DHT22;27089;50.022;7.604;2023-04-06T06:46:20;16.30;80.80
41344;DHT22;27089;50.022;7.604;2023-04-06T06:48:47;17.30;77.40
41344;DHT22;27089;50.022;7.604;2023-04-06T06:51:16;18.00;74.20
41344;DHT22;27089;50.022;7.604;2023-04-06T06:53:43;18.80;71.00
41344;DHT22;27089;50.022;7.604;2023-04-06T06:56:10;19.40;68.80
41344;DHT22;27089;50.022;7.604;2023-04-06T06:58:38;19.40;65.50
41344;DHT22;27089;50.022;7.604;2023-04-06T07:01:05;19.40;65.20
41344;DHT22;27089;50.022;7.604;2023-04-06T07:03:32;19.80;63.80
41344;DHT22;27089;50.022;7.604;2023-04-06T07:05:59;20.70;62.30
41344;DHT22;27089;50.022;7.604;2023-04-06T07:08:28;21.00;58.50
41344;DHT22;27089;50.022;7.604;2023-04-06T07:10:55;21.50;57.20
41344;DHT22;27089;50.022;7.604;2023-04-06T07:13:22;21.80;54.00
41344;DHT22;27089;50.022;7.604;2023-04-06T07:15:49;22.00;52.80
41344;DHT22;27089;50.022;7.604;2023-04-06T07:18:17;22.20;52.60
41344;DHT22;27089;50.022;7.604;2023-04-06T07:20:44;22.50;52.80
41344;DHT22;27089;50.022;7.604;2023-04-06T07:23:11;22.70;52.90
41344;DHT22;27089;50.022;7.604;2023-04-06T07:25:40;22.90;52.00
41344;DHT22;27089;50.022;7.604;2023-04-06T07:28:07;23.50;50.40
41344;DHT22;27089;50.022;7.604;2023-04-06T07:30:34;23.90;49.70
41344;DHT22;27089;50.022;7.604;2023-04-06T07:33:01;24.30;50.20
41344;DHT22;27089;50.022;7.604;2023-04-06T07:35:29;24.30;49.60
41344;DHT22;27089;50.022;7.604;2023-04-06T07:37:57;24.70;49.90
41344;DHT22;27089;50.022;7.604;2023-04-06T07:40:24;24.90;48.70
41344;DHT22;27089;50.022;7.604;2023-04-06T07:42:53;25.10;49.20
41344;DHT22;27089;50.022;7.604;2023-04-06T07:45:20;25.60;49.00
41344;DHT22;27089;50.022;7.604;2023-04-06T07:47:47;25.50;49.30
41344;DHT22;27089;50.022;7.604;2023-04-06T07:50:16;25.70;49.50
41344;DHT22;27089;50.022;7.604;2023-04-06T07:52:43;25.70;47.70
41344;DHT22;27089;50.022;7.604;2023-04-06T07:55:10;25.70;48.30
41344;DHT22;27089;50.022;7.604;2023-04-06T07:57:37;25.90;47.50
41344;DHT22;27089;50.022;7.604;2023-04-06T08:00:07;26.00;46.80
41344;DHT22;27089;50.022;7.604;2023-04-06T08:02:35;26.30;46.30
41344;DHT22;27089;50.022;7.604;2023-04-06T08:05:03;26.70;45.30
41344;DHT22;27089;50.022;7.604;2023-04-06T08:07:30;26.80;44.50
41344;DHT22;27089;50.022;7.604;2023-04-06T08:09:57;26.80;45.50
41344;DHT22;27089;50.022;7.604;2023-04-06T08:12:24;26.90;45.00
41344;DHT22;27089;50.022;7.604;2023-04-06T08:14:51;27.40;45.10
41344;DHT22;27089;50.022;7.604;2023-04-06T08:17:20;27.70;45.00
41344;DHT22;27089;50.022;7.604;2023-04-06T08:19:47;28.10;44.50
41344;DHT22;27089;50.022;7.604;2023-04-06T08:22:15;27.80;44.00
41344;DHT22;27089;50.022;7.604;2023-04-06T08:24:42;28.00;43.10
41344;DHT22;27089;50.022;7.604;2023-04-06T08:27:09;27.30;43.30
41344;DHT22;27089;50.022;7.604;2023-04-06T08:29:36;27.00;44.00
41344;DHT22;27089;50.022;7.604;2023-04-06T08:32:03;27.30;44.40
41344;DHT22;27089;50.022;7.604;2023-04-06T08:34:33;27.40;43.00
41344;DHT22;27089;50.022;7.604;2023-04-06T08:37:01;26.80;42.80
41344;DHT22;27089;50.022;7.604;2023-04-06T08:39:28;27.20;42.40
41344;DHT22;27089;50.022;7.604;2023-04-06T08:41:56;27.10;42.70
41344;DHT22;27089;50.022;7.604;2023-04-06T08:44:25;27.10;42.20
41344;DHT22;27089;50.022;7.604;2023-04-06T08:46:54;26.50;41.80
41344;DHT22;27089;50.022;7.604;2023-04-06T08:49:21;26.00;42.50
41344;DHT22;27089;50.022;7.604;2023-04-06T08:51:50;25.60;43.80
41344;DHT22;27089;50.022;7.604;2023-04-06T08:54:17;25.30;43.40
41344;DHT22;27089;50.022;7.604;2023-04-06T08:56:45;25.00;43.60
41344;DHT22;27089;50.022;7.604;2023-04-06T08:59:13;24.70;43.10
41344;DHT22;27089;50.022;7.604;2023-04-06T09:01:41;24.40;43.90
41344;DHT22;27089;50.022;7.604;2023-04-06T09:04:09;24.60;44.20
41344;DHT22;27089;50.022;7.604;2023-04-06T09:06:37;24.70;44.00
41344;DHT22;27089;50.022;7.604;2023-04-06T09:09:07;24.10;43.60
41344;DHT22;27089;50.022;7.604;2023-04-06T09:11:45;23.80;45.70
41344;DHT22;27089;50.022;7.604;2023-04-06T09:14:12;23.50;46.00
41344;DHT22;27089;50.022;7.604;2023-04-06T09:16:40;23.30;46.70
41344;DHT22;27089;50.022;7.604;2023-04-06T09:19:07;23.40;46.00
41344;DHT22;27089;50.022;7.604;2023-04-06T09:21:35;23.20;46.10
41344;DHT22;27089;50.022;7.604;2023-04-06T09:24:03;23.00;46.00
41344;DHT22;27089;50.022;7.604;2023-04-06T09:26:31;22.80;46.30
41344;DHT22;27089;50.022;7.604;2023-04-06T09:29:00;22.10;46.50
41344;DHT22;27089;50.022;7.604;2023-04-06T09:31:30;21.40;47.60
41344;DHT22;27089;50.022;7.604;2023-04-06T09:33:59;20.90;48.60
41344;DHT22;27089;50.022;7.604;2023-04-06T09:36:33;20.60;48.80
41344;DHT22;27089;50.022;7.604;2023-04-06T09:39:01;20.30;49.00
41344;DHT22;27089;50.022;7.604;2023-04-06T09:41:31;19.90;49.00
41344;DHT22;27089;50.022;7.604;2023-04-06T09:44:03;19.30;49.60
41344;DHT22;27089;50.022;7.604;2023-04-06T09:46:32;18.80;50.90
41344;DHT22;27089;50.022;7.604;2023-04-06T09:49:01;18.60;51.00
41344;DHT22;27089;50.022;7.604;2023-04-06T09:51:30;18.50;51.20
41344;DHT22;27089;50.022;7.604;2023-04-06T09:53:59;18.70;51.90
41344;DHT22;27089;50.022;7.604;2023-04-06T09:56:33;18.70;51.60
41344;DHT22;27089;50.022;7.604;2023-04-06T09:59:09;18.90;51.10
41344;DHT22;27089;50.022;7.604;2023-04-06T10:01:39;19.20;50.70
41344;DHT22;27089;50.022;7.604;2023-04-06T10:04:21;19.30;50.70
41344;DHT22;27089;50.022;7.604;2023-04-06T10:06:51;19.60;50.70
41344;DHT22;27089;50.022;7.604;2023-04-06T10:09:18;19.80;49.80
41344;DHT22;27089;50.022;7.604;2023-04-06T10:11:51;19.50;49.80
41344;DHT22;27089;50.022;7.604;2023-04-06T10:14:19;19.30;49.80
41344;DHT22;27089;50.022;7.604;2023-04-06T10:16:48;19.60;50.80
41344;DHT22;27089;50.022;7.604;2023-04-06T10:19:18;20.10;50.60
41344;DHT22;27089;50.022;7.604;2023-04-06T10:21:50;20.50;48.90
41344;DHT22;27089;50.022;7.604;2023-04-06T10:24:18;20.80;48.50
41344;DHT22;27089;50.022;7.604;2023-04-06T10:26:57;20.90;47.40
41344;DHT22;27089;50.022;7.604;2023-04-06T10:29:24;20.00;47.00
41344;DHT22;27089;50.022;7.604;2023-04-06T10:31:51;19.60;49.60
41344;DHT22;27089;50.022;7.604;2023-04-06T10:34:18;19.50;50.00
41344;DHT22;27089;50.022;7.604;2023-04-06T10:36:45;19.00;49.70
41344;DHT22;27089;50.022;7.604;2023-04-06T10:39:12;18.70;51.00
41344;DHT22;27089;50.022;7.604;2023-04-06T10:41:42;18.20;50.70
41344;DHT22;27089;50.022;7.604;2023-04-06T10:44:17;17.90;51.90
41344;DHT22;27089;50.022;7.604;2023-04-06T10:46:53;17.80;52.30
41344;DHT22;27089;50.022;7.604;2023-04-06T10:49:20;17.70;52.10
41344;DHT22;27089;50.022;7.604;2023-04-06T10:51:51;17.70;53.30
41344;DHT22;27089;50.022;7.604;2023-04-06T10:54:20;17.60;51.20
41344;DHT22;27089;50.022;7.604;2023-04-06T10:56:47;17.40;52.40
41344;DHT22;27089;50.022;7.604;2023-04-06T10:59:20;17.40;53.40
41344;DHT22;27089;50.022;7.604;2023-04-06T11:01:47;17.40;53.30
41344;DHT22;27089;50.022;7.604;2023-04-06T11:04:16;17.50;52.60
41344;DHT22;27089;50.022;7.604;2023-04-06T11:06:46;17.30;53.30
41344;DHT22;27089;50.022;7.604;2023-04-06T11:09:24;17.30;53.50
41344;DHT22;27089;50.022;7.604;2023-04-06T11:11:52;17.40;53.70
41344;DHT22;27089;50.022;7.604;2023-04-06T11:14:20;17.30;53.00
41344;DHT22;27089;50.022;7.604;2023-04-06T11:16:48;17.10;53.30
41344;DHT22;27089;50.022;7.604;2023-04-06T11:19:16;17.10;53.30
41344;DHT22;27089;50.022;7.604;2023-04-06T11:21:45;17.20;54.50
41344;DHT22;27089;50.022;7.604;2023-04-06T11:24:14;17.10;54.70
41344;DHT22;27089;50.022;7.604;2023-04-06T11:26:44;17.20;54.10
41344;DHT22;27089;50.022;7.604;2023-04-06T11:29:14;17.30;54.40
41344;DHT22;27089;50.022;7.604;2023-04-06T11:31:46;17.10;53.60
41344;DHT22;27089;50.022;7.604;2023-04-06T11:34:16;17.10;54.20
41344;DHT22;27089;50.022;7.604;2023-04-06T11:36:44;17.10;54.10
41344;DHT22;27089;50.022;7.604;2023-04-06T11:39:12;16.80;52.90
41344;DHT22;27089;50.022;7.604;2023-04-06T11:41:40;16.60;53.40
41344;DHT22;27089;50.022;7.604;2023-04-06T11:44:07;16.60;54.20
41344;DHT22;27089;50.022;7.604;2023-04-06T11:46:34;16.70;54.60
41344;DHT22;27089;50.022;7.604;2023-04-06T11:49:03;16.80;54.30
41344;DHT22;27089;50.022;7.604;2023-04-06T11:51:30;17.10;54.80
41344;DHT22;27089;50.022;7.604;2023-04-06T11:53:57;17.20;54.10
41344;DHT22;27089;50.022;7.604;2023-04-06T11:56:28;17.00;53.80
41344;DHT22;27089;50.022;7.604;2023-04-06T11:58:56;17.00;55.60
41344;DHT22;27089;50.022;7.604;2023-04-06T12:01:24;17.10;54.50
41344;DHT22;27089;50.022;7.604;2023-04-06T12:03:52;17.10;53.80
41344;DHT22;27089;50.022;7.604;2023-04-06T12:06:20;17.10;54.50
41344;DHT22;27089;50.022;7.604;2023-04-06T12:08:47;17.10;55.10
41344;DHT22;27089;50.022;7.604;2023-04-06T12:11:15;17.00;54.50
41344;DHT22;27089;50.022;7.604;2023-04-06T12:13:42;16.80;54.50
41344;DHT22;27089;50.022;7.604;2023-04-06T12:16:09;16.80;55.90
41344;DHT22;27089;50.022;7.604;2023-04-06T12:18:36;16.70;55.50
41344;DHT22;27089;50.022;7.604;2023-04-06T12:21:04;16.70;55.80
41344;DHT22;27089;50.022;7.604;2023-04-06T12:23:33;16.70;54.80
41344;DHT22;27089;50.022;7.604;2023-04-06T12:26:00;16.50;54.20
41344;DHT22;27089;50.022;7.604;2023-04-06T12:28:27;16.60;56.90
41344;DHT22;27089;50.022;7.604;2023-04-06T12:30:58;16.60;54.80
41344;DHT22;27089;50.022;7.604;2023-04-06T12:33:25;16.60;54.90
41344;DHT22;27089;50.022;7.604;2023-04-06T12:35:52;16.50;54.60
41344;DHT22;27089;50.022;7.604;2023-04-06T12:38:19;16.40;55.10
41344;DHT22;27089;50.022;7.604;2023-04-06T12:40:48;16.30;55.80
41344;DHT22;27089;50.022;7.604;2023-04-06T12:43:15;16.20;56.00
41344;DHT22;27089;50.022;7.604;2023-04-06T12:45:42;16.10;56.00
41344;DHT22;27089;50.022;7.604;2023-04-06T12:48:09;16.10;56.50
41344;DHT22;27089;50.022;7.604;2023-04-06T12:50:36;16.10;56.40
41344;DHT22;27089;50.022;7.604;2023-04-06T12:53:03;16.10;56.20
41344;DHT22;27089;50.022;7.604;2023-04-06T12:55:30;16.10;56.10
41344;DHT22;27089;50.022;7.604;2023-04-06T12:58:01;16.10;56.30
41344;DHT22;27089;50.022;7.604;2023-04-06T13:00:28;16.10;57.00
41344;DHT22;27089;50.022;7.604;2023-04-06T13:02:56;16.10;57.90
41344;DHT22;27089;50.022;7.604;2023-04-06T13:05:23;16.00;58.30
41344;DHT22;27089;50.022;7.604;2023-04-06T13:07:50;15.90;57.30
41344;DHT22;27089;50.022;7.604;2023-04-06T13:10:17;15.90;58.70
41344;DHT22;27089;50.022;7.604;2023-04-06T13:12:44;16.00;59.90
41344;DHT22;27089;50.022;7.604;2023-04-06T13:15:13;16.00;58.40
41344;DHT22;27089;50.022;7.604;2023-04-06T13:17:40;15.90;58.00
41344;DHT22;27089;50.022;7.604;2023-04-06T13:20:08;15.80;59.20
41344;DHT22;27089;50.022;7.604;2023-04-06T13:22:35;15.80;60.10
41344;DHT22;27089;50.022;7.604;2023-04-06T13:25:03;15.60;59.30
41344;DHT22;27089;50.022;7.604;2023-04-06T13:27:30;15.50;59.10
41344;DHT22;27089;50.022;7.604;2023-04-06T13:29:59;15.40;59.70
41344;DHT22;27089;50.022;7.604;2023-04-06T13:32:28;15.40;59.90
41344;DHT22;27089;50.022;7.604;2023-04-06T13:34:55;15.50;61.10
41344;DHT22;27089;50.022;7.604;2023-04-06T13:37:23;15.60;61.10
41344;DHT22;27089;50.022;7.604;2023-04-06T13:39:50;15.60;60.70
41344;DHT22;27089;50.022;7.604;2023-04-06T13:42:17;15.50;62.00
41344;DHT22;27089;50.022;7.604;2023-04-06T13:44:44;15.50;60.90
41344;DHT22;27089;50.022;7.604;2023-04-06T13:47:13;15.40;61.40
41344;DHT22;27089;50.022;7.604;2023-04-06T13:49:42;15.40;62.00
41344;DHT22;27089;50.022;7.604;2023-04-06T13:52:09;15.30;62.40
41344;DHT22;27089;50.022;7.604;2023-04-06T13:54:37;15.10;62.60
41344;DHT22;27089;50.022;7.604;2023-04-06T13:57:04;15.00;62.80
41344;DHT22;27089;50.022;7.604;2023-04-06T13:59:33;14.90;64.30
41344;DHT22;27089;50.022;7.604;2023-04-06T14:02:01;14.70;64.50
41344;DHT22;27089;50.022;7.604;2023-04-06T14:04:28;14.60;66.50
41344;DHT22;27089;50.022;7.604;2023-04-06T14:06:57;14.50;67.50
41344;DHT22;27089;50.022;7.604;2023-04-06T14:09:24;14.30;69.10
41344;DHT22;27089;50.022;7.604;2023-04-06T14:11:51;14.30;69.80
41344;DHT22;27089;50.022;7.604;2023-04-06T14:14:18;14.30;69.30
41344;DHT22;27089;50.022;7.604;2023-04-06T14:16:45;14.50;71.30
41344;DHT22;27089;50.022;7.604;2023-04-06T14:19:14;14.40;69.00
41344;DHT22;27089;50.022;7.604;2023-04-06T14:21:43;14.40;70.10
41344;DHT22;27089;50.022;7.604;2023-04-06T14:24:11;14.30;68.50
41344;DHT22;27089;50.022;7.604;2023-04-06T14:26:40;14.30;68.30
41344;DHT22;27089;50.022;7.604;2023-04-06T14:29:08;14.20;67.50
41344;DHT22;27089;50.022;7.604;2023-04-06T14:31:35;14.20;69.30
41344;DHT22;27089;50.022;7.604;2023-04-06T14:34:03;14.20;69.20
41344;DHT22;27089;50.022;7.604;2023-04-06T14:36:31;14.30;69.70
41344;DHT22;27089;50.022;7.604;2023-04-06T14:39:02;14.20;69.10
41344;DHT22;27089;50.022;7.604;2023-04-06T14:41:32;14.00;69.90
41344;DHT22;27089;50.022;7.604;2023-04-06T14:43:59;13.90;71.80
41344;DHT22;27089;50.022;7.604;2023-04-06T14:46:26;13.90;71.70
41344;DHT22;27089;50.022;7.604;2023-04-06T14:48:54;13.90;70.00
41344;DHT22;27089;50.022;7.604;2023-04-06T14:51:21;13.70;71.40
41344;DHT22;27089;50.022;7.604;2023-04-06T14:53:48;13.50;76.10
41344;DHT22;27089;50.022;7.604;2023-04-06T14:56:19;13.50;75.10
41344;DHT22;27089;50.022;7.604;2023-04-06T14:58:49;13.60;76.30
41344;DHT22;27089;50.022;7.604;2023-04-06T15:01:17;13.50;77.60
41344;DHT22;27089;50.022;7.604;2023-04-06T15:03:44;13.50;78.50
41344;DHT22;27089;50.022;7.604;2023-04-06T15:06:13;13.50;79.80
41344;DHT22;27089;50.022;7.604;2023-04-06T15:08:41;13.50;80.20
41344;DHT22;27089;50.022;7.604;2023-04-06T15:11:09;13.30;80.50
41344;DHT22;27089;50.022;7.604;2023-04-06T15:13:36;13.20;82.50
41344;DHT22;27089;50.022;7.604;2023-04-06T15:16:05;13.00;82.30
41344;DHT22;27089;50.022;7.604;2023-04-06T15:18:33;13.00;85.00
41344;DHT22;27089;50.022;7.604;2023-04-06T15:21:01;12.90;84.50
41344;DHT22;27089;50.022;7.604;2023-04-06T15:23:27;12.90;86.20
41344;DHT22;27089;50.022;7.604;2023-04-06T15:25:55;12.80;90.10
41344;DHT22;27089;50.022;7.604;2023-04-06T15:28:22;12.80;90.60
41344;DHT22;27089;50.022;7.604;2023-04-06T15:30:50;12.70;91.40
41344;DHT22;27089;50.022;7.604;2023-04-06T15:33:19;12.70;92.20
41344;DHT22;27089;50.022;7.604;2023-04-06T15:35:47;12.70;93.10